createdAt,value
2022-08-09T00:00:00.408Z,5.07
2022-08-09T00:02:28.307Z,5.93
2022-08-09T00:05:03.229Z,6.72
2022-08-09T00:07:44.431Z,5.45
2022-08-09T00:10:11.922Z,5.60
2022-08-09T00:12:52.392Z,4.68
2022-08-09T00:15:19.369Z,4.97
2022-08-09T00:18:05.091Z,7.85
2022-08-09T00:20:32.115Z,4.57
2022-08-09T00:25:46.813Z,3.15
2022-08-09T00:28:19.237Z,8.48
2022-08-09T00:30:49.821Z,5.95
2022-08-09T00:33:16.780Z,5.20
2022-08-09T00:35:43.821Z,5.38
2022-08-09T00:38:12.739Z,4.30
2022-08-09T00:40:52.495Z,5.57
2022-08-09T00:44:16.636Z,2.80
2022-08-09T00:46:09.303Z,4.18
2022-08-09T00:48:37.197Z,4.90
2022-08-09T00:51:11.804Z,5.13
2022-08-09T00:53:39.694Z,5.82
2022-08-09T00:56:09.742Z,4.10
2022-08-09T00:58:36.804Z,3.38
2022-08-09T01:01:16.286Z,4.03
2022-08-09T01:03:57.375Z,4.50
2022-08-09T01:06:35.373Z,4.95
2022-08-09T01:09:36.674Z,4.63
2022-08-09T01:12:17.501Z,2.72
2022-08-09T01:15:01.187Z,4.85
2022-08-09T01:17:58.978Z,5.28
2022-08-09T01:20:44.381Z,6.97
2022-08-09T01:26:53.660Z,4.55
2022-08-09T01:29:29.500Z,4.78
2022-08-09T01:32:30.118Z,7.10
2022-08-09T01:35:07.125Z,4.68
2022-08-09T01:38:10.123Z,4.45
2022-08-09T01:40:33.680Z,6.63
2022-08-09T01:43:01.309Z,8.32
2022-08-09T01:45:29.181Z,7.85
2022-08-09T01:47:58.699Z,5.28
2022-08-09T01:50:36.669Z,8.23
2022-08-09T01:53:19.257Z,6.28
2022-08-09T01:55:48.104Z,5.07
2022-08-09T01:58:16.066Z,4.90
2022-08-09T02:00:46.154Z,3.88
2022-08-09T02:03:15.199Z,7.38
2022-08-09T02:06:04.124Z,7.88
2022-08-09T02:08:40.366Z,6.72
2022-08-09T02:11:20.081Z,7.40
2022-08-09T02:13:55.419Z,5.72
2022-08-09T02:16:59.015Z,7.50
2022-08-09T02:19:23.569Z,6.03
2022-08-09T02:21:55.247Z,8.98
2022-08-09T02:24:26.870Z,7.28
2022-08-09T02:26:57.136Z,5.90
2022-08-09T02:29:31.328Z,6.47
2022-08-09T02:32:01.729Z,6.40
2022-08-09T02:34:40.835Z,7.43
2022-08-09T02:37:22.030Z,5.65
2022-08-09T02:40:01.265Z,5.72
2022-08-09T02:42:34.025Z,5.43
2022-08-09T02:45:08.117Z,7.60
2022-08-09T02:47:57.525Z,8.32
2022-08-09T02:53:25.715Z,6.75
2022-08-09T02:55:58.254Z,7.82
2022-08-09T02:58:35.679Z,6.60
2022-08-09T03:01:10.956Z,6.13
2022-08-09T03:04:16.677Z,10.50
2022-08-09T03:06:29.032Z,6.80
2022-08-09T03:08:58.080Z,6.85
2022-08-09T03:12:04.529Z,6.93
2022-08-09T03:16:42.051Z,6.50
2022-08-09T03:19:14.442Z,6.72
2022-08-09T03:22:00.627Z,7.05
2022-08-09T03:24:42.231Z,8.07
2022-08-09T03:27:17.049Z,10.43
2022-08-09T03:29:57.934Z,7.53
2022-08-09T03:32:30.444Z,7.55
2022-08-09T03:34:59.326Z,8.57
2022-08-09T03:37:55.243Z,7.05
2022-08-09T03:40:13.486Z,9.25
2022-08-09T03:42:45.020Z,11.80
2022-08-09T03:45:11.736Z,9.85
2022-08-09T03:47:40.065Z,5.95
2022-08-09T03:50:18.710Z,7.97
2022-08-09T03:53:01.540Z,11.68
2022-08-09T03:55:30.130Z,10.90
2022-08-09T03:58:09.903Z,7.90
2022-08-09T04:00:42.608Z,8.77
2022-08-09T04:03:11.754Z,9.35
2022-08-09T04:05:46.361Z,9.52
2022-08-09T04:08:12.784Z,9.10
2022-08-09T04:10:39.758Z,8.52
2022-08-09T04:13:11.577Z,9.65
2022-08-09T04:16:18.489Z,7.18
2022-08-09T04:18:25.373Z,8.73
2022-08-09T04:20:51.990Z,8.88
2022-08-09T04:23:24.522Z,9.38
2022-08-09T04:25:52.960Z,8.48
2022-08-09T04:28:30.622Z,10.93
2022-08-09T04:31:05.877Z,11.30
2022-08-09T04:33:53.240Z,8.38
2022-08-09T04:36:27.252Z,9.63
2022-08-09T04:38:55.391Z,12.00
2022-08-09T04:41:23.662Z,11.15
2022-08-09T04:44:04.893Z,7.55
2022-08-09T04:46:38.232Z,11.85
2022-08-09T04:49:30.274Z,11.30
2022-08-09T04:52:07.351Z,8.90
2022-08-09T04:54:33.973Z,7.45
2022-08-09T04:57:00.457Z,10.55
2022-08-09T04:59:30.474Z,8.52
2022-08-09T05:01:56.884Z,11.02
2022-08-09T05:04:23.272Z,9.52
2022-08-09T05:06:58.084Z,7.15
2022-08-09T05:09:24.490Z,7.95
2022-08-09T05:11:51.424Z,10.65
2022-08-09T05:14:18.765Z,9.05
2022-08-09T05:16:58.947Z,8.55
2022-08-09T05:19:38.422Z,10.82
2022-08-09T05:22:33.502Z,10.82
2022-08-09T05:25:01.115Z,8.30
2022-08-09T05:27:30.345Z,11.35
2022-08-09T05:29:57.529Z,9.30
2022-08-09T05:32:25.628Z,11.32
2022-08-09T05:34:51.985Z,9.85
2022-08-09T05:37:18.587Z,10.63
2022-08-09T05:39:45.069Z,10.27
2022-08-09T05:42:18.004Z,8.88
2022-08-09T05:45:00.604Z,10.15
2022-08-09T05:47:30.343Z,8.50
2022-08-09T05:50:26.087Z,10.32
2022-08-09T05:52:53.429Z,10.73
2022-08-09T05:55:21.695Z,10.57
2022-08-09T05:57:56.709Z,12.35
2022-08-09T06:00:29.706Z,8.13
2022-08-09T06:03:01.677Z,9.27
2022-08-09T06:05:57.818Z,9.18
2022-08-09T06:08:19.295Z,9.65
2022-08-09T06:10:50.487Z,9.13
2022-08-09T06:13:20.636Z,11.13
2022-08-09T06:15:51.484Z,7.95
2022-08-09T06:18:20.465Z,8.57
2022-08-09T06:20:57.053Z,11.88
2022-08-09T06:23:57.776Z,13.00
2022-08-09T06:26:14.268Z,6.78
2022-08-09T06:28:43.526Z,7.50
2022-08-09T06:31:10.353Z,12.98
2022-08-09T06:33:41.454Z,8.32
2022-08-09T06:36:08.622Z,10.60
2022-08-09T06:38:37.668Z,7.20
2022-08-09T06:41:08.601Z,7.22
2022-08-09T06:43:47.298Z,5.10
2022-08-09T06:46:39.675Z,7.53
2022-08-09T06:49:01.470Z,3.92
2022-08-09T06:51:27.959Z,6.40
2022-08-09T06:53:55.028Z,7.00
2022-08-09T06:56:21.483Z,5.82
2022-08-09T07:00:55.963Z,5.53
2022-08-09T07:01:53.609Z,6.63
2022-08-09T07:04:24.742Z,6.38
2022-08-09T07:07:00.306Z,9.25
2022-08-09T07:09:53.109Z,5.35
2022-08-09T07:12:18.012Z,5.63
2022-08-09T07:14:45.945Z,5.10
2022-08-09T07:17:19.230Z,4.68
2022-08-09T07:19:48.153Z,6.63
2022-08-09T07:22:18.527Z,6.88
2022-08-09T07:24:54.581Z,6.50
2022-08-09T07:27:27.344Z,4.47
2022-08-09T07:30:02.197Z,8.18
2022-08-09T07:32:32.446Z,5.63
2022-08-09T07:35:02.709Z,4.40
2022-08-09T07:37:29.418Z,3.72
2022-08-09T07:39:56.063Z,12.40
2022-08-09T07:42:26.098Z,8.40
2022-08-09T07:45:02.471Z,7.53
2022-08-09T07:47:49.689Z,4.00
2022-08-09T07:50:20.745Z,3.13
2022-08-09T07:53:02.777Z,5.50
2022-08-09T07:55:30.910Z,3.85
2022-08-09T07:58:17.277Z,3.92
2022-08-09T08:00:58.906Z,3.80
2022-08-09T08:03:31.094Z,3.45
2022-08-09T08:05:58.545Z,3.83
2022-08-09T08:09:01.960Z,2.57
2022-08-09T08:12:10.639Z,3.08
2022-08-09T08:13:58.964Z,21.88
2022-08-09T08:16:31.595Z,3.15
2022-08-09T08:18:58.501Z,2.03
2022-08-09T08:21:25.027Z,3.25
2022-08-09T08:23:55.978Z,2.88
2022-08-09T08:26:41.744Z,2.10
2022-08-09T08:29:09.213Z,1.83
2022-08-09T08:32:03.966Z,1.17
2022-08-09T08:34:28.210Z,3.00
2022-08-09T08:36:54.767Z,4.28
2022-08-09T08:39:22.244Z,1.33
2022-08-09T08:41:52.385Z,3.88
2022-08-09T08:44:23.137Z,2.80
2022-08-09T08:47:03.320Z,2.53
2022-08-09T08:49:46.724Z,3.92
2022-08-09T08:52:52.489Z,1.95
2022-08-09T08:55:05.734Z,3.72
2022-08-09T08:57:34.867Z,4.15
2022-08-09T09:00:02.443Z,3.72
2022-08-09T09:02:35.352Z,2.78
2022-08-09T09:05:02.964Z,1.95
2022-08-09T09:07:36.774Z,3.15
2022-08-09T09:10:09.375Z,2.67
2022-08-09T09:12:36.686Z,4.78
2022-08-09T09:15:06.305Z,3.22
2022-08-09T09:17:49.150Z,2.17
2022-08-09T09:20:20.587Z,2.95
2022-08-09T09:22:56.333Z,3.45
2022-08-09T09:26:04.669Z,3.50
2022-08-09T09:29:02.545Z,2.45
2022-08-09T09:32:06.145Z,5.95
2022-08-09T09:34:15.287Z,2.03
2022-08-09T09:36:47.047Z,3.53
2022-08-09T09:39:22.748Z,1.77
2022-08-09T09:41:51.064Z,1.50
2022-08-09T09:44:33.915Z,2.22
2022-08-09T09:47:13.308Z,2.97
2022-08-09T09:50:07.383Z,2.53
2022-08-09T09:52:36.510Z,4.43
2022-08-09T09:55:16.246Z,3.22
2022-08-09T09:58:02.951Z,4.80
2022-08-09T10:00:31.757Z,1.30
2022-08-09T10:02:59.930Z,3.38
2022-08-09T10:05:27.060Z,2.47
2022-08-09T10:08:27.131Z,1.80
2022-08-09T10:10:54.780Z,3.60
2022-08-09T10:13:24.629Z,2.80
2022-08-09T10:16:56.496Z,4.27
2022-08-09T10:18:57.065Z,1.97
2022-08-09T10:21:27.490Z,2.92
2022-08-09T10:23:56.176Z,1.95
2022-08-09T10:26:24.779Z,2.83
2022-08-09T10:29:36.060Z,3.83
2022-08-09T10:32:35.778Z,1.90
2022-08-09T10:34:33.978Z,3.25
2022-08-09T10:37:09.652Z,1.77
2022-08-09T10:39:49.166Z,2.45
2022-08-09T10:42:16.380Z,1.73
2022-08-09T10:44:59.310Z,0.77
2022-08-09T10:48:20.344Z,2.50
2022-08-09T10:51:09.114Z,1.10
2022-08-09T10:53:46.853Z,3.38
2022-08-09T10:56:29.622Z,3.13
2022-08-09T10:58:58.701Z,1.65
2022-08-09T11:03:13.275Z,2.25
2022-08-09T11:04:31.275Z,1.38
2022-08-09T11:07:00.276Z,1.60
2022-08-09T11:09:53.689Z,2.28
2022-08-09T11:12:29.863Z,1.33
2022-08-09T11:15:19.530Z,1.98
2022-08-09T11:18:03.120Z,2.05
2022-08-09T11:20:47.449Z,2.75
2022-08-09T11:23:16.724Z,3.25
2022-08-09T11:25:50.296Z,2.78
2022-08-09T11:28:38.832Z,1.65
2022-08-09T11:31:52.910Z,1.65
2022-08-09T11:34:43.514Z,2.67
2022-08-09T11:37:18.258Z,1.15
2022-08-09T11:40:02.782Z,2.28
2022-08-09T11:42:47.044Z,1.40
2022-08-09T11:45:43.510Z,2.40
2022-08-09T11:48:25.191Z,2.80
2022-08-09T11:52:49.257Z,1.48
2022-08-09T11:54:33.332Z,2.10
2022-08-09T11:57:56.831Z,2.33
2022-08-09T12:00:28.172Z,4.35
2022-08-09T12:02:56.466Z,0.90
2022-08-09T12:05:37.247Z,1.13
2022-08-09T12:08:12.165Z,3.13
2022-08-09T12:10:48.542Z,2.08
2022-08-09T12:14:08.473Z,3.03
2022-08-09T12:16:37.463Z,2.95
2022-08-09T12:19:08.474Z,1.65
2022-08-09T12:21:50.437Z,2.97
2022-08-09T12:24:24.794Z,4.60
2022-08-09T12:29:11.815Z,1.77
2022-08-09T12:30:00.082Z,1.90
2022-08-09T12:32:41.423Z,1.90
2022-08-09T12:35:12.668Z,3.83
2022-08-09T12:37:52.433Z,1.90
2022-08-09T12:40:23.359Z,1.27
2022-08-09T12:42:51.222Z,2.15
2022-08-09T12:45:34.617Z,2.57
2022-08-09T12:50:35.855Z,3.75
2022-08-09T12:53:18.164Z,1.58
2022-08-09T12:56:14.121Z,4.20
2022-08-09T12:58:33.940Z,0.85
2022-08-09T13:01:04.518Z,2.28
2022-08-09T13:03:56.885Z,2.33
2022-08-09T13:06:44.814Z,3.17
2022-08-09T13:09:31.420Z,1.48
2022-08-09T13:12:06.314Z,1.75
2022-08-09T13:14:42.452Z,3.55
2022-08-09T13:17:33.627Z,0.68
2022-08-09T13:20:14.059Z,0.50
2022-08-09T13:23:02.034Z,2.13
2022-08-09T13:25:54.704Z,1.70
2022-08-09T13:28:34.517Z,1.38
2022-08-09T13:32:15.121Z,1.13
2022-08-09T13:33:57.312Z,3.00
2022-08-09T13:36:41.468Z,2.27
2022-08-09T13:41:45.822Z,3.08
2022-08-09T13:42:11.883Z,2.35
2022-08-09T13:44:44.209Z,2.38
2022-08-09T13:47:27.119Z,1.80
2022-08-09T13:50:08.731Z,2.35
2022-08-09T13:52:39.974Z,2.17
2022-08-09T13:55:13.545Z,2.67
2022-08-09T13:57:55.966Z,1.65
2022-08-09T14:00:28.369Z,1.02
2022-08-09T14:03:17.171Z,2.55
2022-08-09T14:05:56.478Z,1.45
2022-08-09T14:08:30.594Z,5.22
2022-08-09T14:10:59.592Z,1.42
2022-08-09T14:14:16.150Z,1.67
2022-08-09T14:16:16.763Z,2.20
2022-08-09T14:18:50.224Z,1.23
2022-08-09T14:21:22.682Z,0.80
2022-08-09T14:23:55.414Z,0.60
2022-08-09T14:26:30.149Z,0.68
2022-08-09T14:28:57.745Z,1.75
2022-08-09T14:31:36.070Z,1.10
2022-08-09T14:34:11.648Z,0.50
2022-08-09T14:39:09.689Z,1.17
2022-08-09T14:41:40.109Z,2.28
2022-08-09T14:44:11.131Z,1.33
2022-08-09T14:46:56.151Z,0.63
2022-08-09T14:49:25.541Z,1.25
2022-08-09T14:54:28.299Z,1.85
2022-08-09T14:56:58.715Z,1.33
2022-08-09T14:59:27.138Z,2.03
2022-08-09T15:01:54.098Z,2.78
2022-08-09T15:04:23.757Z,2.40
2022-08-09T15:06:51.365Z,0.80
2022-08-09T15:10:03.670Z,1.58
2022-08-09T15:12:08.100Z,1.58
2022-08-09T15:14:38.553Z,2.95
2022-08-09T15:17:09.209Z,1.52
2022-08-09T15:19:36.567Z,2.00
2022-08-09T15:22:03.782Z,2.35
2022-08-09T15:24:30.371Z,2.45
2022-08-09T15:26:57.799Z,4.47
2022-08-09T15:30:58.706Z,1.67
2022-08-09T15:32:29.744Z,1.33
2022-08-09T15:35:00.274Z,2.13
2022-08-09T15:37:56.740Z,1.25
2022-08-09T15:40:25.330Z,1.65
2022-08-09T15:42:59.489Z,3.17
2022-08-09T15:45:29.463Z,2.92
2022-08-09T15:48:05.541Z,1.88
2022-08-09T15:50:34.511Z,2.50
2022-08-09T15:53:17.795Z,1.17
2022-08-09T15:56:04.114Z,1.23
2022-08-09T15:58:39.442Z,2.00
2022-08-09T16:01:06.124Z,2.10
2022-08-09T16:03:38.727Z,2.60
2022-08-09T16:06:16.123Z,1.10
2022-08-09T16:11:22.295Z,2.50
2022-08-09T16:14:03.859Z,1.33
2022-08-09T16:16:38.058Z,1.60
2022-08-09T16:19:07.596Z,1.10
2022-08-09T16:21:34.963Z,1.73
2022-08-09T16:24:03.025Z,2.17
2022-08-09T16:26:34.847Z,1.75
2022-08-09T16:29:12.728Z,1.83
2022-08-09T16:32:19.047Z,1.25
2022-08-09T16:34:54.872Z,3.65
2022-08-09T16:37:52.943Z,2.85
2022-08-09T16:40:08.337Z,1.25
2022-08-09T16:42:35.353Z,3.15
2022-08-09T16:45:02.498Z,0.77
2022-08-09T16:48:38.942Z,1.55
2022-08-09T16:50:30.377Z,1.35
2022-08-09T16:53:00.917Z,2.80
2022-08-09T16:55:44.174Z,2.78
2022-08-09T16:58:16.592Z,2.40
2022-08-09T17:00:43.724Z,2.72
2022-08-09T17:03:21.954Z,1.10
2022-08-09T17:06:08.775Z,2.47
2022-08-09T17:09:03.105Z,2.85
2022-08-09T17:11:40.190Z,1.95
2022-08-09T17:14:08.304Z,1.55
2022-08-09T17:16:42.696Z,3.10
2022-08-09T17:19:10.530Z,2.20
2022-08-09T17:21:37.097Z,2.80
2022-08-09T17:24:27.782Z,1.05
2022-08-09T17:26:53.510Z,3.00
2022-08-09T17:29:20.940Z,1.88
2022-08-09T17:31:49.179Z,0.90
2022-08-09T17:34:59.790Z,0.73
2022-08-09T17:37:02.512Z,2.28
2022-08-09T17:39:52.914Z,2.15
2022-08-09T17:42:41.290Z,3.92
2022-08-09T17:45:06.303Z,2.45
2022-08-09T17:47:33.078Z,1.55
2022-08-09T17:50:24.899Z,2.78
2022-08-09T17:53:04.662Z,2.53
2022-08-09T17:55:49.525Z,1.63
2022-08-09T17:58:19.110Z,1.73
2022-08-09T18:00:48.133Z,1.67
2022-08-09T18:03:17.798Z,1.90
2022-08-09T18:05:45.316Z,1.95
2022-08-09T18:08:19.598Z,2.20
2022-08-09T18:11:01.678Z,1.98
2022-08-09T18:13:43.521Z,2.15
2022-08-09T18:16:28.977Z,1.08
2022-08-09T18:21:24.260Z,3.15
2022-08-09T18:26:38.788Z,1.35
2022-08-09T18:30:42.605Z,2.67
2022-08-09T18:32:03.058Z,1.85
2022-08-09T18:34:31.510Z,2.03
2022-08-09T18:36:58.306Z,1.85
2022-08-09T18:39:25.718Z,1.83
2022-08-09T18:41:58.940Z,2.08
2022-08-09T18:44:26.013Z,2.05
2022-08-09T18:47:04.864Z,1.48
2022-08-09T18:49:43.354Z,0.75
2022-08-09T18:52:14.300Z,1.90
2022-08-09T18:54:52.712Z,1.73
2022-08-09T18:59:55.404Z,1.95
2022-08-09T19:02:32.540Z,2.63
2022-08-09T19:05:20.698Z,1.30
2022-08-09T19:08:04.920Z,0.98
2022-08-09T19:10:39.071Z,1.42
2022-08-09T19:13:23.062Z,1.88
2022-08-09T19:15:56.773Z,2.92
2022-08-09T19:18:34.962Z,1.25
2022-08-09T19:21:09.832Z,1.55
2022-08-09T19:24:39.576Z,1.83
2022-08-09T19:26:31.004Z,2.15
2022-08-09T19:29:09.449Z,2.13
2022-08-09T19:31:44.018Z,3.00
2022-08-09T19:34:21.436Z,1.67
2022-08-09T19:36:51.689Z,3.67
2022-08-09T19:39:20.727Z,1.30
2022-08-09T19:42:05.267Z,1.83
2022-08-09T19:44:33.612Z,3.00
2022-08-09T19:47:01.341Z,2.40
2022-08-09T19:50:06.766Z,2.25
2022-08-09T19:52:15.289Z,6.85
2022-08-09T19:54:44.767Z,4.60
2022-08-09T19:57:11.223Z,2.75
2022-08-09T19:59:57.701Z,4.28
2022-08-09T20:04:08.420Z,3.17
2022-08-09T20:05:14.841Z,3.50
2022-08-09T20:07:59.599Z,3.58
2022-08-09T20:10:36.446Z,4.00
2022-08-09T20:13:05.337Z,3.10
2022-08-09T20:16:37.383Z,3.70
2022-08-09T20:18:19.665Z,2.42
2022-08-09T20:20:47.099Z,5.55
2022-08-09T20:23:17.263Z,1.77
2022-08-09T20:25:52.402Z,1.35
2022-08-09T20:28:34.207Z,8.27
2022-08-09T20:31:05.025Z,7.00
2022-08-09T20:33:41.347Z,3.28
2022-08-09T20:36:10.381Z,3.00
2022-08-09T20:39:02.916Z,5.30
2022-08-09T20:41:34.930Z,3.22
2022-08-09T20:44:04.821Z,1.85
2022-08-09T20:46:43.232Z,3.65
2022-08-09T20:49:11.757Z,4.13
2022-08-09T20:51:41.354Z,3.95
2022-08-09T20:54:12.532Z,2.80
2022-08-09T20:56:41.128Z,1.42
2022-08-09T20:59:07.684Z,1.65
2022-08-09T21:01:50.730Z,5.05
2022-08-09T21:05:55.291Z,1.13
2022-08-09T21:07:11.273Z,0.93
2022-08-09T21:09:55.486Z,1.40
2022-08-09T21:15:12.887Z,1.88
2022-08-09T21:18:23.476Z,1.05
2022-08-09T21:20:29.860Z,2.45
2022-08-09T21:22:57.255Z,0.98
2022-08-09T21:25:44.347Z,4.15
2022-08-09T21:28:34.344Z,2.15
2022-08-09T21:31:16.973Z,0.70
2022-08-09T21:33:50.308Z,4.07
2022-08-09T21:36:18.995Z,4.80
2022-08-09T21:38:45.523Z,2.08
2022-08-09T21:41:17.519Z,1.42
2022-08-09T21:43:56.912Z,3.00
2022-08-09T21:46:24.761Z,1.52
2022-08-09T21:48:52.186Z,3.03
2022-08-09T21:51:35.730Z,1.38
2022-08-09T21:54:03.082Z,1.33
2022-08-09T21:56:43.439Z,1.40
2022-08-09T21:59:16.261Z,1.70
2022-08-09T22:02:00.328Z,1.27
2022-08-09T22:04:55.206Z,2.90
2022-08-09T22:07:34.979Z,1.38
2022-08-09T22:10:00.879Z,1.50
2022-08-09T22:12:31.268Z,1.65
2022-08-09T22:14:58.684Z,3.22
2022-08-09T22:17:25.801Z,5.57
2022-08-09T22:19:57.942Z,4.15
2022-08-09T22:22:26.233Z,1.17
2022-08-09T22:26:03.969Z,0.93
2022-08-09T22:27:39.128Z,1.75
2022-08-09T22:30:07.668Z,1.17
2022-08-09T22:32:34.600Z,1.77
2022-08-09T22:35:06.125Z,2.78
2022-08-09T22:37:35.818Z,2.00
2022-08-09T22:40:08.816Z,5.07
2022-08-09T22:42:37.651Z,0.95
2022-08-09T22:48:10.457Z,2.63
2022-08-09T22:48:16.723Z,1.15
2022-08-09T22:50:38.185Z,2.22
2022-08-09T22:53:04.812Z,3.17
2022-08-09T22:56:06.264Z,2.35
2022-08-09T22:58:20.334Z,2.28
2022-08-09T23:00:59.957Z,3.55
2022-08-09T23:04:02.505Z,4.00
2022-08-09T23:06:14.048Z,3.05
2022-08-09T23:08:44.225Z,3.38
2022-08-09T23:11:15.726Z,3.28
2022-08-09T23:13:50.458Z,3.47
2022-08-09T23:16:19.745Z,4.30
2022-08-09T23:18:46.175Z,3.95
2022-08-09T23:21:14.537Z,5.93
2022-08-09T23:24:01.576Z,7.78
2022-08-09T23:26:37.209Z,3.00
2022-08-09T23:29:05.728Z,4.90
2022-08-09T23:31:32.312Z,4.95
2022-08-09T23:33:59.243Z,3.15
2022-08-09T23:36:26.439Z,4.68
2022-08-09T23:38:52.838Z,4.03
2022-08-09T23:41:27.728Z,5.63
2022-08-09T23:43:56.998Z,6.68
2022-08-09T23:46:24.004Z,3.25
2022-08-09T23:48:50.375Z,4.15
2022-08-09T23:51:17.491Z,5.57
2022-08-09T23:53:43.900Z,5.30
2022-08-09T23:56:10.428Z,4.40
2022-08-09T23:58:36.859Z,3.78
